sensor_id;sensor_type;location;lat;lon;timestamp;P1;durP1;ratioP1;P2;durP2;ratioP2
60306;SDS011;46155;52.364;6.580;2024-03-25T04:01:16;37.20;;;34.27;;
60306;SDS011;46155;52.364;6.580;2024-03-25T04:03:42;46.30;;;32.70;;
60306;SDS011;46155;52.364;6.580;2024-03-25T04:06:08;46.10;;;33.73;;
60306;SDS011;46155;52.364;6.580;2024-03-25T04:08:35;47.53;;;29.80;;
60306;SDS011;46155;52.364;6.580;2024-03-25T04:11:01;55.93;;;34.43;;
60306;SDS011;46155;52.364;6.580;2024-03-25T04:13:27;36.33;;;33.00;;
60306;SDS011;46155;52.364;6.580;2024-03-25T04:15:52;31.90;;;29.97;;
60306;SDS011;46155;52.364;6.580;2024-03-25T04:18:17;32.93;;;30.83;;
60306;SDS011;46155;52.364;6.580;2024-03-25T04:20:44;34.67;;;32.13;;
60306;SDS011;46155;52.364;6.580;2024-03-25T04:23:09;33.47;;;30.30;;
60306;SDS011;46155;52.364;6.580;2024-03-25T04:25:35;31.57;;;29.57;;
60306;SDS011;46155;52.364;6.580;2024-03-25T04:28:02;27.13;;;25.47;;
60306;SDS011;46155;52.364;6.580;2024-03-25T04:30:28;32.07;;;29.80;;
60306;SDS011;46155;52.364;6.580;2024-03-25T04:32:53;30.97;;;28.93;;
60306;SDS011;46155;52.364;6.580;2024-03-25T04:35:19;27.30;;;25.43;;
60306;SDS011;46155;52.364;6.580;2024-03-25T04:37:44;30.70;;;28.80;;
60306;SDS011;46155;52.364;6.580;2024-03-25T04:40:10;28.43;;;26.53;;
60306;SDS011;46155;52.364;6.580;2024-03-25T04:42:39;26.03;;;24.43;;
60306;SDS011;46155;52.364;6.580;2024-03-25T04:45:04;25.97;;;24.03;;
60306;SDS011;46155;52.364;6.580;2024-03-25T04:47:30;24.77;;;23.23;;
60306;SDS011;46155;52.364;6.580;2024-03-25T04:49:55;45.67;;;23.47;;
60306;SDS011;46155;52.364;6.580;2024-03-25T04:52:21;27.73;;;25.73;;
60306;SDS011;46155;52.364;6.580;2024-03-25T04:54:48;26.23;;;24.67;;
60306;SDS011;46155;52.364;6.580;2024-03-25T04:57:14;24.87;;;23.10;;
60306;SDS011;46155;52.364;6.580;2024-03-25T04:59:39;23.83;;;22.03;;
60306;SDS011;46155;52.364;6.580;2024-03-25T05:02:04;23.37;;;21.57;;
60306;SDS011;46155;52.364;6.580;2024-03-25T05:04:30;21.77;;;20.37;;
60306;SDS011;46155;52.364;6.580;2024-03-25T05:06:56;23.90;;;21.63;;
60306;SDS011;46155;52.364;6.580;2024-03-25T05:09:21;25.17;;;23.00;;
60306;SDS011;46155;52.364;6.580;2024-03-25T05:11:46;23.53;;;22.10;;
60306;SDS011;46155;52.364;6.580;2024-03-25T05:14:11;27.57;;;25.00;;
60306;SDS011;46155;52.364;6.580;2024-03-25T05:16:37;26.13;;;24.50;;
60306;SDS011;46155;52.364;6.580;2024-03-25T05:19:02;27.13;;;25.43;;
60306;SDS011;46155;52.364;6.580;2024-03-25T05:21:29;27.43;;;24.47;;
60306;SDS011;46155;52.364;6.580;2024-03-25T05:23:57;31.73;;;26.63;;
60306;SDS011;46155;52.364;6.580;2024-03-25T05:26:23;25.57;;;23.77;;
60306;SDS011;46155;52.364;6.580;2024-03-25T05:28:54;23.33;;;22.03;;
60306;SDS011;46155;52.364;6.580;2024-03-25T05:31:20;23.30;;;21.47;;
60306;SDS011;46155;52.364;6.580;2024-03-25T05:33:46;24.00;;;22.10;;
60306;SDS011;46155;52.364;6.580;2024-03-25T05:36:11;19.30;;;18.17;;
60306;SDS011;46155;52.364;6.580;2024-03-25T05:38:37;21.87;;;20.40;;
60306;SDS011;46155;52.364;6.580;2024-03-25T05:41:03;19.07;;;17.60;;
60306;SDS011;46155;52.364;6.580;2024-03-25T05:43:28;20.80;;;19.60;;
60306;SDS011;46155;52.364;6.580;2024-03-25T05:45:54;23.57;;;20.77;;
60306;SDS011;46155;52.364;6.580;2024-03-25T05:48:19;19.83;;;18.07;;
60306;SDS011;46155;52.364;6.580;2024-03-25T05:50:45;21.17;;;19.07;;
60306;SDS011;46155;52.364;6.580;2024-03-25T05:53:11;18.20;;;16.90;;
60306;SDS011;46155;52.364;6.580;2024-03-25T05:55:36;28.20;;;20.63;;
60306;SDS011;46155;52.364;6.580;2024-03-25T05:58:01;22.30;;;20.90;;
60306;SDS011;46155;52.364;6.580;2024-03-25T06:00:28;22.90;;;21.30;;
60306;SDS011;46155;52.364;6.580;2024-03-25T06:02:54;23.40;;;21.73;;
60306;SDS011;46155;52.364;6.580;2024-03-25T06:05:19;23.10;;;21.27;;
60306;SDS011;46155;52.364;6.580;2024-03-25T06:07:44;22.47;;;20.53;;
60306;SDS011;46155;52.364;6.580;2024-03-25T06:10:10;22.07;;;20.97;;
60306;SDS011;46155;52.364;6.580;2024-03-25T06:12:35;24.50;;;23.17;;
60306;SDS011;46155;52.364;6.580;2024-03-25T06:15:00;33.37;;;21.97;;
60306;SDS011;46155;52.364;6.580;2024-03-25T06:17:26;24.77;;;23.47;;
60306;SDS011;46155;52.364;6.580;2024-03-25T06:19:51;27.13;;;25.10;;
60306;SDS011;46155;52.364;6.580;2024-03-25T06:22:17;26.27;;;23.67;;
60306;SDS011;46155;52.364;6.580;2024-03-25T06:24:42;23.97;;;22.03;;
60306;SDS011;46155;52.364;6.580;2024-03-25T06:27:09;24.93;;;23.40;;
60306;SDS011;46155;52.364;6.580;2024-03-25T06:29:34;24.40;;;22.70;;
60306;SDS011;46155;52.364;6.580;2024-03-25T06:32:00;25.43;;;19.10;;
60306;SDS011;46155;52.364;6.580;2024-03-25T06:35:04;24.70;;;21.80;;
60306;SDS011;46155;52.364;6.580;2024-03-25T06:37:30;25.40;;;23.10;;
60306;SDS011;46155;52.364;6.580;2024-03-25T06:39:56;22.23;;;20.57;;
60306;SDS011;46155;52.364;6.580;2024-03-25T06:42:21;23.27;;;21.83;;
60306;SDS011;46155;52.364;6.580;2024-03-25T06:44:46;25.53;;;18.70;;
60306;SDS011;46155;52.364;6.580;2024-03-25T06:47:14;24.30;;;22.23;;
60306;SDS011;46155;52.364;6.580;2024-03-25T06:49:40;22.20;;;19.83;;
60306;SDS011;46155;52.364;6.580;2024-03-25T06:52:05;21.77;;;19.80;;
60306;SDS011;46155;52.364;6.580;2024-03-25T06:54:31;21.23;;;19.83;;
60306;SDS011;46155;52.364;6.580;2024-03-25T06:56:56;19.80;;;18.00;;
60306;SDS011;46155;52.364;6.580;2024-03-25T06:59:21;21.43;;;19.23;;
60306;SDS011;46155;52.364;6.580;2024-03-25T07:01:47;21.60;;;20.37;;
60306;SDS011;46155;52.364;6.580;2024-03-25T07:04:12;20.13;;;18.83;;
60306;SDS011;46155;52.364;6.580;2024-03-25T07:06:37;17.87;;;15.47;;
60306;SDS011;46155;52.364;6.580;2024-03-25T07:09:02;21.07;;;19.17;;
60306;SDS011;46155;52.364;6.580;2024-03-25T07:11:28;17.60;;;15.87;;
60306;SDS011;46155;52.364;6.580;2024-03-25T07:13:54;19.57;;;17.70;;
60306;SDS011;46155;52.364;6.580;2024-03-25T07:16:19;43.50;;;20.03;;
60306;SDS011;46155;52.364;6.580;2024-03-25T07:18:44;19.67;;;18.27;;
60306;SDS011;46155;52.364;6.580;2024-03-25T07:21:09;23.20;;;21.37;;
60306;SDS011;46155;52.364;6.580;2024-03-25T07:23:35;25.73;;;23.73;;
60306;SDS011;46155;52.364;6.580;2024-03-25T07:26:00;30.53;;;28.73;;
60306;SDS011;46155;52.364;6.580;2024-03-25T07:28:25;34.50;;;31.83;;
60306;SDS011;46155;52.364;6.580;2024-03-25T07:30:50;22.97;;;21.30;;
60306;SDS011;46155;52.364;6.580;2024-03-25T07:33:16;21.90;;;16.47;;
60306;SDS011;46155;52.364;6.580;2024-03-25T07:35:42;17.10;;;15.47;;
60306;SDS011;46155;52.364;6.580;2024-03-25T07:38:07;33.27;;;16.23;;
60306;SDS011;46155;52.364;6.580;2024-03-25T07:40:33;17.87;;;16.13;;
60306;SDS011;46155;52.364;6.580;2024-03-25T07:42:58;19.83;;;14.00;;
60306;SDS011;46155;52.364;6.580;2024-03-25T07:45:23;14.57;;;13.33;;
60306;SDS011;46155;52.364;6.580;2024-03-25T07:47:48;28.17;;;13.97;;
60306;SDS011;46155;52.364;6.580;2024-03-25T07:50:14;16.37;;;14.67;;
60306;SDS011;46155;52.364;6.580;2024-03-25T07:52:39;13.97;;;12.87;;
60306;SDS011;46155;52.364;6.580;2024-03-25T07:55:08;22.37;;;14.73;;
60306;SDS011;46155;52.364;6.580;2024-03-25T07:57:33;14.17;;;13.23;;
60306;SDS011;46155;52.364;6.580;2024-03-25T07:59:58;15.47;;;14.13;;
60306;SDS011;46155;52.364;6.580;2024-03-25T08:02:24;13.20;;;12.23;;
60306;SDS011;46155;52.364;6.580;2024-03-25T08:04:49;27.87;;;13.33;;
60306;SDS011;46155;52.364;6.580;2024-03-25T08:07:14;24.07;;;15.10;;
60306;SDS011;46155;52.364;6.580;2024-03-25T08:09:40;18.10;;;14.53;;
60306;SDS011;46155;52.364;6.580;2024-03-25T08:12:05;14.50;;;12.67;;
60306;SDS011;46155;52.364;6.580;2024-03-25T08:14:31;14.80;;;13.33;;
60306;SDS011;46155;52.364;6.580;2024-03-25T08:16:56;16.17;;;14.67;;
60306;SDS011;46155;52.364;6.580;2024-03-25T08:19:21;17.90;;;16.40;;
60306;SDS011;46155;52.364;6.580;2024-03-25T08:21:46;15.03;;;13.80;;
60306;SDS011;46155;52.364;6.580;2024-03-25T08:24:13;16.73;;;15.33;;
60306;SDS011;46155;52.364;6.580;2024-03-25T08:26:39;17.53;;;15.60;;
60306;SDS011;46155;52.364;6.580;2024-03-25T08:29:04;28.13;;;15.73;;
60306;SDS011;46155;52.364;6.580;2024-03-25T08:31:29;17.27;;;15.97;;
60306;SDS011;46155;52.364;6.580;2024-03-25T08:33:55;33.67;;;16.43;;
60306;SDS011;46155;52.364;6.580;2024-03-25T08:36:20;17.50;;;16.40;;
60306;SDS011;46155;52.364;6.580;2024-03-25T08:38:45;23.70;;;20.80;;
60306;SDS011;46155;52.364;6.580;2024-03-25T08:41:11;20.03;;;18.30;;
60306;SDS011;46155;52.364;6.580;2024-03-25T08:43:36;19.53;;;18.33;;
60306;SDS011;46155;52.364;6.580;2024-03-25T08:46:01;21.10;;;19.40;;
60306;SDS011;46155;52.364;6.580;2024-03-25T08:48:28;23.33;;;21.20;;
60306;SDS011;46155;52.364;6.580;2024-03-25T08:50:53;28.83;;;23.20;;
60306;SDS011;46155;52.364;6.580;2024-03-25T08:53:19;25.17;;;23.53;;
60306;SDS011;46155;52.364;6.580;2024-03-25T08:55:47;28.90;;;25.30;;
60306;SDS011;46155;52.364;6.580;2024-03-25T08:58:13;28.17;;;26.43;;
60306;SDS011;46155;52.364;6.580;2024-03-25T09:00:39;28.70;;;26.80;;
60306;SDS011;46155;52.364;6.580;2024-03-25T09:03:05;29.53;;;27.63;;
60306;SDS011;46155;52.364;6.580;2024-03-25T09:05:30;34.57;;;32.17;;
60306;SDS011;46155;52.364;6.580;2024-03-25T09:07:55;32.73;;;30.43;;
60306;SDS011;46155;52.364;6.580;2024-03-25T09:10:23;36.80;;;34.20;;
60306;SDS011;46155;52.364;6.580;2024-03-25T09:13:07;38.73;;;36.17;;
60306;SDS011;46155;52.364;6.580;2024-03-25T09:15:33;44.43;;;38.87;;
60306;SDS011;46155;52.364;6.580;2024-03-25T09:17:58;43.80;;;41.10;;
60306;SDS011;46155;52.364;6.580;2024-03-25T09:20:23;53.13;;;49.60;;
60306;SDS011;46155;52.364;6.580;2024-03-25T09:22:49;80.20;;;76.30;;
60306;SDS011;46155;52.364;6.580;2024-03-25T09:25:14;55.10;;;52.53;;
60306;SDS011;46155;52.364;6.580;2024-03-25T09:27:40;58.60;;;54.80;;
60306;SDS011;46155;52.364;6.580;2024-03-25T09:30:06;36.30;;;34.33;;
60306;SDS011;46155;52.364;6.580;2024-03-25T09:32:34;48.93;;;46.27;;
60306;SDS011;46155;52.364;6.580;2024-03-25T09:34:59;51.70;;;48.63;;
60306;SDS011;46155;52.364;6.580;2024-03-25T09:37:24;50.80;;;47.87;;
60306;SDS011;46155;52.364;6.580;2024-03-25T09:39:50;63.07;;;59.97;;
60306;SDS011;46155;52.364;6.580;2024-03-25T09:42:15;46.20;;;43.17;;
60306;SDS011;46155;52.364;6.580;2024-03-25T09:44:50;38.13;;;36.10;;
60306;SDS011;46155;52.364;6.580;2024-03-25T09:47:15;47.20;;;44.67;;
60306;SDS011;46155;52.364;6.580;2024-03-25T09:49:41;45.43;;;43.03;;
60306;SDS011;46155;52.364;6.580;2024-03-25T09:52:07;42.57;;;40.07;;
60306;SDS011;46155;52.364;6.580;2024-03-25T09:54:33;36.87;;;34.90;;
60306;SDS011;46155;52.364;6.580;2024-03-25T09:56:59;34.07;;;32.20;;
60306;SDS011;46155;52.364;6.580;2024-03-25T09:59:26;42.37;;;39.83;;
60306;SDS011;46155;52.364;6.580;2024-03-25T10:01:52;36.53;;;34.53;;
60306;SDS011;46155;52.364;6.580;2024-03-25T10:04:19;33.60;;;30.83;;
60306;SDS011;46155;52.364;6.580;2024-03-25T10:06:45;28.20;;;26.80;;
60306;SDS011;46155;52.364;6.580;2024-03-25T10:09:10;23.70;;;22.20;;
60306;SDS011;46155;52.364;6.580;2024-03-25T10:11:35;24.53;;;22.47;;
60306;SDS011;46155;52.364;6.580;2024-03-25T10:14:01;22.67;;;21.17;;
60306;SDS011;46155;52.364;6.580;2024-03-25T10:16:27;20.93;;;19.83;;
60306;SDS011;46155;52.364;6.580;2024-03-25T10:18:53;24.13;;;22.13;;
60306;SDS011;46155;52.364;6.580;2024-03-25T10:21:21;21.63;;;20.13;;
60306;SDS011;46155;52.364;6.580;2024-03-25T10:23:50;25.50;;;23.33;;
60306;SDS011;46155;52.364;6.580;2024-03-25T10:26:28;20.67;;;19.47;;
60306;SDS011;46155;52.364;6.580;2024-03-25T10:29:01;26.87;;;22.93;;
60306;SDS011;46155;52.364;6.580;2024-03-25T10:31:29;22.80;;;20.73;;
60306;SDS011;46155;52.364;6.580;2024-03-25T10:33:55;25.17;;;23.87;;
60306;SDS011;46155;52.364;6.580;2024-03-25T10:36:23;30.87;;;28.97;;
60306;SDS011;46155;52.364;6.580;2024-03-25T10:38:52;27.97;;;25.97;;
60306;SDS011;46155;52.364;6.580;2024-03-25T10:41:21;27.00;;;25.63;;
60306;SDS011;46155;52.364;6.580;2024-03-25T10:43:47;32.10;;;30.33;;
60306;SDS011;46155;52.364;6.580;2024-03-25T10:46:22;27.50;;;25.80;;
60306;SDS011;46155;52.364;6.580;2024-03-25T10:51:26;35.60;;;33.97;;
60306;SDS011;46155;52.364;6.580;2024-03-25T10:53:52;38.73;;;36.33;;
60306;SDS011;46155;52.364;6.580;2024-03-25T10:56:21;33.83;;;31.83;;
60306;SDS011;46155;52.364;6.580;2024-03-25T10:58:50;33.00;;;31.13;;
60306;SDS011;46155;52.364;6.580;2024-03-25T11:01:18;40.30;;;38.27;;
60306;SDS011;46155;52.364;6.580;2024-03-25T11:03:45;52.27;;;48.33;;
60306;SDS011;46155;52.364;6.580;2024-03-25T11:06:12;73.87;;;57.77;;
60306;SDS011;46155;52.364;6.580;2024-03-25T11:08:37;42.97;;;40.63;;
60306;SDS011;46155;52.364;6.580;2024-03-25T11:11:04;43.67;;;41.07;;
60306;SDS011;46155;52.364;6.580;2024-03-25T11:13:30;66.77;;;62.90;;
60306;SDS011;46155;52.364;6.580;2024-03-25T11:15:56;63.00;;;59.93;;
60306;SDS011;46155;52.364;6.580;2024-03-25T11:18:24;74.07;;;70.20;;
60306;SDS011;46155;52.364;6.580;2024-03-25T11:21:02;69.37;;;66.13;;
60306;SDS011;46155;52.364;6.580;2024-03-25T11:23:37;67.47;;;62.77;;
60306;SDS011;46155;52.364;6.580;2024-03-25T11:26:15;62.33;;;58.73;;
60306;SDS011;46155;52.364;6.580;2024-03-25T11:28:43;116.47;;;110.73;;
60306;SDS011;46155;52.364;6.580;2024-03-25T11:31:08;61.27;;;57.90;;
60306;SDS011;46155;52.364;6.580;2024-03-25T11:33:36;109.57;;;104.17;;
60306;SDS011;46155;52.364;6.580;2024-03-25T11:36:05;130.20;;;124.10;;
60306;SDS011;46155;52.364;6.580;2024-03-25T11:38:30;136.00;;;129.57;;
60306;SDS011;46155;52.364;6.580;2024-03-25T11:40:56;162.03;;;154.33;;
60306;SDS011;46155;52.364;6.580;2024-03-25T11:43:22;80.40;;;76.53;;
60306;SDS011;46155;52.364;6.580;2024-03-25T11:45:48;132.53;;;125.00;;
60306;SDS011;46155;52.364;6.580;2024-03-25T11:48:14;156.37;;;148.43;;
60306;SDS011;46155;52.364;6.580;2024-03-25T11:50:40;127.73;;;121.63;;
60306;SDS011;46155;52.364;6.580;2024-03-25T11:53:05;156.77;;;149.03;;
60306;SDS011;46155;52.364;6.580;2024-03-25T11:55:30;169.73;;;161.33;;
60306;SDS011;46155;52.364;6.580;2024-03-25T11:57:56;178.77;;;168.53;;
60306;SDS011;46155;52.364;6.580;2024-03-25T12:00:21;186.63;;;177.57;;
60306;SDS011;46155;52.364;6.580;2024-03-25T12:02:47;203.83;;;194.30;;
60306;SDS011;46155;52.364;6.580;2024-03-25T12:05:13;170.97;;;162.20;;
60306;SDS011;46155;52.364;6.580;2024-03-25T12:07:38;180.13;;;171.90;;
60306;SDS011;46155;52.364;6.580;2024-03-25T12:10:04;181.97;;;172.87;;
60306;SDS011;46155;52.364;6.580;2024-03-25T12:12:48;147.53;;;140.77;;
60306;SDS011;46155;52.364;6.580;2024-03-25T12:15:15;173.73;;;165.10;;
60306;SDS011;46155;52.364;6.580;2024-03-25T12:17:41;173.83;;;165.67;;
60306;SDS011;46155;52.364;6.580;2024-03-25T12:20:07;195.37;;;186.20;;
60306;SDS011;46155;52.364;6.580;2024-03-25T12:22:34;158.90;;;151.20;;
60306;SDS011;46155;52.364;6.580;2024-03-25T12:25:04;156.43;;;148.63;;
60306;SDS011;46155;52.364;6.580;2024-03-25T12:27:33;96.07;;;91.37;;
60306;SDS011;46155;52.364;6.580;2024-03-25T12:30:03;110.17;;;105.07;;
60306;SDS011;46155;52.364;6.580;2024-03-25T12:32:38;95.43;;;90.40;;
60306;SDS011;46155;52.364;6.580;2024-03-25T12:35:08;137.53;;;131.03;;
60306;SDS011;46155;52.364;6.580;2024-03-25T12:37:38;151.60;;;144.17;;
60306;SDS011;46155;52.364;6.580;2024-03-25T12:40:05;154.17;;;147.03;;
60306;SDS011;46155;52.364;6.580;2024-03-25T12:42:34;153.03;;;145.93;;
60306;SDS011;46155;52.364;6.580;2024-03-25T12:45:00;162.73;;;154.57;;
60306;SDS011;46155;52.364;6.580;2024-03-25T12:47:26;164.73;;;156.40;;
60306;SDS011;46155;52.364;6.580;2024-03-25T12:49:52;102.67;;;97.53;;
60306;SDS011;46155;52.364;6.580;2024-03-25T12:52:17;152.43;;;145.30;;
60306;SDS011;46155;52.364;6.580;2024-03-25T12:54:43;147.77;;;139.73;;
60306;SDS011;46155;52.364;6.580;2024-03-25T12:57:08;141.53;;;134.80;;
60306;SDS011;46155;52.364;6.580;2024-03-25T12:59:34;169.37;;;161.23;;
60306;SDS011;46155;52.364;6.580;2024-03-25T13:01:59;159.33;;;151.93;;
60306;SDS011;46155;52.364;6.580;2024-03-25T13:04:26;181.10;;;172.60;;
60306;SDS011;46155;52.364;6.580;2024-03-25T13:06:52;166.43;;;158.60;;
60306;SDS011;46155;52.364;6.580;2024-03-25T13:09:17;111.20;;;105.70;;
60306;SDS011;46155;52.364;6.580;2024-03-25T13:11:43;91.70;;;87.20;;
60306;SDS011;46155;52.364;6.580;2024-03-25T13:14:10;68.43;;;64.53;;
60306;SDS011;46155;52.364;6.580;2024-03-25T13:16:37;79.57;;;75.53;;
60306;SDS011;46155;52.364;6.580;2024-03-25T13:19:02;158.10;;;149.47;;
60306;SDS011;46155;52.364;6.580;2024-03-25T13:21:27;116.43;;;110.43;;
60306;SDS011;46155;52.364;6.580;2024-03-25T13:23:52;93.07;;;88.40;;
60306;SDS011;46155;52.364;6.580;2024-03-25T13:26:18;95.53;;;90.87;;
60306;SDS011;46155;52.364;6.580;2024-03-25T13:28:43;95.20;;;89.90;;
60306;SDS011;46155;52.364;6.580;2024-03-25T13:31:08;78.13;;;74.27;;
60306;SDS011;46155;52.364;6.580;2024-03-25T13:33:34;60.83;;;57.87;;
60306;SDS011;46155;52.364;6.580;2024-03-25T13:35:59;66.10;;;62.93;;
60306;SDS011;46155;52.364;6.580;2024-03-25T13:38:25;80.00;;;76.03;;
60306;SDS011;46155;52.364;6.580;2024-03-25T13:40:52;82.27;;;77.50;;
60306;SDS011;46155;52.364;6.580;2024-03-25T13:43:17;70.80;;;67.37;;
60306;SDS011;46155;52.364;6.580;2024-03-25T13:45:46;96.00;;;91.17;;
60306;SDS011;46155;52.364;6.580;2024-03-25T13:48:12;121.63;;;115.87;;
60306;SDS011;46155;52.364;6.580;2024-03-25T13:50:38;125.63;;;119.70;;
60306;SDS011;46155;52.364;6.580;2024-03-25T13:53:03;128.50;;;122.47;;
60306;SDS011;46155;52.364;6.580;2024-03-25T13:55:29;165.20;;;156.83;;
60306;SDS011;46155;52.364;6.580;2024-03-25T13:57:54;205.23;;;195.63;;
60306;SDS011;46155;52.364;6.580;2024-03-25T14:00:19;152.47;;;144.17;;
60306;SDS011;46155;52.364;6.580;2024-03-25T14:02:47;149.87;;;142.50;;
60306;SDS011;46155;52.364;6.580;2024-03-25T14:05:12;156.70;;;148.37;;
60306;SDS011;46155;52.364;6.580;2024-03-25T14:07:38;221.70;;;211.30;;
60306;SDS011;46155;52.364;6.580;2024-03-25T14:10:03;181.67;;;172.73;;
60306;SDS011;46155;52.364;6.580;2024-03-25T14:12:29;156.10;;;148.63;;
60306;SDS011;46155;52.364;6.580;2024-03-25T14:14:55;144.77;;;137.47;;
60306;SDS011;46155;52.364;6.580;2024-03-25T14:17:21;190.73;;;181.73;;
60306;SDS011;46155;52.364;6.580;2024-03-25T14:19:46;166.77;;;158.93;;
60306;SDS011;46155;52.364;6.580;2024-03-25T14:22:11;135.63;;;129.10;;
60306;SDS011;46155;52.364;6.580;2024-03-25T14:24:37;185.57;;;176.80;;
60306;SDS011;46155;52.364;6.580;2024-03-25T14:27:02;150.73;;;143.70;;
60306;SDS011;46155;52.364;6.580;2024-03-25T14:29:28;110.90;;;105.40;;
60306;SDS011;46155;52.364;6.580;2024-03-25T14:31:53;108.17;;;103.07;;
60306;SDS011;46155;52.364;6.580;2024-03-25T14:34:19;96.33;;;91.27;;
60306;SDS011;46155;52.364;6.580;2024-03-25T14:36:44;135.27;;;128.10;;
60306;SDS011;46155;52.364;6.580;2024-03-25T14:39:10;111.63;;;106.33;;
60306;SDS011;46155;52.364;6.580;2024-03-25T14:41:38;142.60;;;136.00;;
60306;SDS011;46155;52.364;6.580;2024-03-25T14:44:05;122.97;;;116.90;;
60306;SDS011;46155;52.364;6.580;2024-03-25T14:46:30;107.67;;;102.63;;
60306;SDS011;46155;52.364;6.580;2024-03-25T14:48:55;90.23;;;85.17;;
60306;SDS011;46155;52.364;6.580;2024-03-25T14:51:21;110.33;;;104.93;;
60306;SDS011;46155;52.364;6.580;2024-03-25T14:53:46;103.13;;;98.13;;
60306;SDS011;46155;52.364;6.580;2024-03-25T14:56:11;118.77;;;112.53;;
60306;SDS011;46155;52.364;6.580;2024-03-25T14:58:37;103.67;;;98.67;;
60306;SDS011;46155;52.364;6.580;2024-03-25T15:01:02;91.07;;;86.83;;
60306;SDS011;46155;52.364;6.580;2024-03-25T15:03:28;79.63;;;75.33;;
60306;SDS011;46155;52.364;6.580;2024-03-25T15:05:53;86.37;;;81.73;;
60306;SDS011;46155;52.364;6.580;2024-03-25T15:08:18;152.70;;;144.87;;
60306;SDS011;46155;52.364;6.580;2024-03-25T15:10:47;140.03;;;133.33;;
60306;SDS011;46155;52.364;6.580;2024-03-25T15:13:12;124.97;;;118.87;;
60306;SDS011;46155;52.364;6.580;2024-03-25T15:15:40;137.07;;;128.97;;
60306;SDS011;46155;52.364;6.580;2024-03-25T15:18:08;106.73;;;101.80;;
60306;SDS011;46155;52.364;6.580;2024-03-25T15:20:34;140.50;;;133.57;;
60306;SDS011;46155;52.364;6.580;2024-03-25T15:22:59;148.90;;;141.87;;
60306;SDS011;46155;52.364;6.580;2024-03-25T15:25:25;195.77;;;186.43;;
60306;SDS011;46155;52.364;6.580;2024-03-25T15:27:52;154.63;;;146.77;;
60306;SDS011;46155;52.364;6.580;2024-03-25T15:30:17;155.67;;;148.20;;
60306;SDS011;46155;52.364;6.580;2024-03-25T15:32:42;157.50;;;150.13;;
60306;SDS011;46155;52.364;6.580;2024-03-25T15:35:08;142.97;;;136.03;;
60306;SDS011;46155;52.364;6.580;2024-03-25T15:37:33;148.33;;;141.33;;
60306;SDS011;46155;52.364;6.580;2024-03-25T15:39:59;134.90;;;128.43;;
60306;SDS011;46155;52.364;6.580;2024-03-25T15:42:24;142.83;;;136.03;;
60306;SDS011;46155;52.364;6.580;2024-03-25T15:44:50;152.03;;;144.77;;
60306;SDS011;46155;52.364;6.580;2024-03-25T15:47:17;186.67;;;178.00;;
60306;SDS011;46155;52.364;6.580;2024-03-25T15:49:48;152.73;;;145.57;;
60306;SDS011;46155;52.364;6.580;2024-03-25T15:52:15;145.30;;;137.80;;
60306;SDS011;46155;52.364;6.580;2024-03-25T15:54:41;188.87;;;180.17;;
60306;SDS011;46155;52.364;6.580;2024-03-25T15:57:06;175.20;;;166.73;;
60306;SDS011;46155;52.364;6.580;2024-03-25T15:59:32;150.17;;;142.97;;
60306;SDS011;46155;52.364;6.580;2024-03-25T16:01:57;182.23;;;173.43;;
60306;SDS011;46155;52.364;6.580;2024-03-25T16:04:22;204.37;;;194.77;;
60306;SDS011;46155;52.364;6.580;2024-03-25T16:06:48;170.10;;;162.10;;
60306;SDS011;46155;52.364;6.580;2024-03-25T16:09:14;217.90;;;207.63;;
60306;SDS011;46155;52.364;6.580;2024-03-25T16:11:41;172.00;;;163.83;;
60306;SDS011;46155;52.364;6.580;2024-03-25T16:14:06;188.27;;;179.47;;
60306;SDS011;46155;52.364;6.580;2024-03-25T16:16:32;208.87;;;199.20;;
60306;SDS011;46155;52.364;6.580;2024-03-25T16:18:57;158.10;;;150.60;;
60306;SDS011;46155;52.364;6.580;2024-03-25T16:21:22;153.37;;;146.03;;
60306;SDS011;46155;52.364;6.580;2024-03-25T16:23:49;148.03;;;140.97;;
60306;SDS011;46155;52.364;6.580;2024-03-25T16:26:14;152.60;;;145.00;;
60306;SDS011;46155;52.364;6.580;2024-03-25T16:28:40;112.77;;;107.40;;
60306;SDS011;46155;52.364;6.580;2024-03-25T16:31:06;136.67;;;130.07;;
60306;SDS011;46155;52.364;6.580;2024-03-25T16:33:31;111.13;;;105.60;;
60306;SDS011;46155;52.364;6.580;2024-03-25T16:35:57;91.63;;;87.23;;
60306;SDS011;46155;52.364;6.580;2024-03-25T16:38:23;123.57;;;117.90;;
60306;SDS011;46155;52.364;6.580;2024-03-25T16:40:48;131.80;;;125.67;;
60306;SDS011;46155;52.364;6.580;2024-03-25T16:43:15;133.53;;;127.17;;
60306;SDS011;46155;52.364;6.580;2024-03-25T16:45:41;103.30;;;98.10;;
60306;SDS011;46155;52.364;6.580;2024-03-25T16:48:06;135.27;;;128.47;;
60306;SDS011;46155;52.364;6.580;2024-03-25T16:50:34;137.30;;;130.77;;
60306;SDS011;46155;52.364;6.580;2024-03-25T16:52:59;124.43;;;118.23;;
60306;SDS011;46155;52.364;6.580;2024-03-25T16:55:25;111.33;;;106.03;;
60306;SDS011;46155;52.364;6.580;2024-03-25T16:57:50;90.57;;;86.20;;
60306;SDS011;46155;52.364;6.580;2024-03-25T17:00:16;99.53;;;94.87;;
60306;SDS011;46155;52.364;6.580;2024-03-25T17:02:42;88.10;;;84.00;;
60306;SDS011;46155;52.364;6.580;2024-03-25T17:05:07;110.20;;;102.90;;
60306;SDS011;46155;52.364;6.580;2024-03-25T17:07:33;96.57;;;91.87;;
60306;SDS011;46155;52.364;6.580;2024-03-25T17:09:58;97.03;;;92.47;;
60306;SDS011;46155;52.364;6.580;2024-03-25T17:12:24;86.37;;;82.30;;
60306;SDS011;46155;52.364;6.580;2024-03-25T17:14:49;89.37;;;85.10;;
60306;SDS011;46155;52.364;6.580;2024-03-25T17:17:15;81.23;;;76.50;;
60306;SDS011;46155;52.364;6.580;2024-03-25T17:19:40;71.87;;;68.23;;
60306;SDS011;46155;52.364;6.580;2024-03-25T17:22:05;83.87;;;79.63;;
60306;SDS011;46155;52.364;6.580;2024-03-25T17:24:31;83.13;;;78.93;;
60306;SDS011;46155;52.364;6.580;2024-03-25T17:26:56;77.13;;;73.50;;
60306;SDS011;46155;52.364;6.580;2024-03-25T17:29:21;67.20;;;63.67;;
60306;SDS011;46155;52.364;6.580;2024-03-25T17:31:48;64.23;;;61.20;;
60306;SDS011;46155;52.364;6.580;2024-03-25T17:34:14;58.03;;;55.13;;
60306;SDS011;46155;52.364;6.580;2024-03-25T17:36:39;54.00;;;51.17;;
60306;SDS011;46155;52.364;6.580;2024-03-25T17:39:04;48.03;;;45.40;;
60306;SDS011;46155;52.364;6.580;2024-03-25T17:41:30;51.83;;;48.57;;
60306;SDS011;46155;52.364;6.580;2024-03-25T17:43:55;51.97;;;49.43;;
60306;SDS011;46155;52.364;6.580;2024-03-25T17:46:21;55.23;;;52.60;;
60306;SDS011;46155;52.364;6.580;2024-03-25T17:48:47;60.87;;;57.80;;
60306;SDS011;46155;52.364;6.580;2024-03-25T17:51:16;54.33;;;51.23;;
60306;SDS011;46155;52.364;6.580;2024-03-25T17:53:42;44.03;;;41.93;;
60306;SDS011;46155;52.364;6.580;2024-03-25T17:56:07;56.97;;;53.97;;
60306;SDS011;46155;52.364;6.580;2024-03-25T17:58:32;56.33;;;53.67;;
60306;SDS011;46155;52.364;6.580;2024-03-25T18:00:58;38.20;;;36.20;;
60306;SDS011;46155;52.364;6.580;2024-03-25T18:03:24;36.50;;;34.70;;
60306;SDS011;46155;52.364;6.580;2024-03-25T18:05:49;45.37;;;42.77;;
60306;SDS011;46155;52.364;6.580;2024-03-25T18:08:15;37.70;;;35.80;;
60306;SDS011;46155;52.364;6.580;2024-03-25T18:10:40;32.30;;;30.70;;